createdAt,value
2024-05-09T00:00:43.837Z,9.84
2024-05-09T00:03:12.245Z,9.89
2024-05-09T00:05:41.097Z,9.90
2024-05-09T00:08:09.528Z,9.89
2024-05-09T00:10:39.089Z,9.84
2024-05-09T00:13:07.999Z,9.77
2024-05-09T00:15:36.446Z,9.73
2024-05-09T00:18:05.330Z,9.67
2024-05-09T00:20:38.799Z,9.62
2024-05-09T00:23:10.252Z,9.57
2024-05-09T00:25:38.094Z,9.55
2024-05-09T00:28:06.085Z,9.48
2024-05-09T00:30:36.133Z,9.41
2024-05-09T00:33:06.524Z,9.36
2024-05-09T00:35:35.545Z,9.33
2024-05-09T00:38:03.716Z,9.29
2024-05-09T00:40:41.600Z,9.26
2024-05-09T00:43:11.846Z,9.25
2024-05-09T00:45:40.302Z,9.21
2024-05-09T00:48:09.069Z,9.14
2024-05-09T00:50:39.895Z,9.09
2024-05-09T00:53:08.200Z,9.03
2024-05-09T00:55:35.776Z,8.97
2024-05-09T00:58:03.774Z,8.90
2024-05-09T01:00:37.974Z,8.84
2024-05-09T01:03:09.769Z,8.78
2024-05-09T01:05:39.674Z,8.73
2024-05-09T01:08:09.050Z,8.69
2024-05-09T01:10:37.752Z,8.64
2024-05-09T01:13:05.627Z,8.58
2024-05-09T01:15:33.939Z,8.55
2024-05-09T01:18:10.459Z,8.52
2024-05-09T01:20:42.468Z,8.46
2024-05-09T01:23:13.965Z,8.46
2024-05-09T01:25:43.806Z,8.45
2024-05-09T01:28:11.454Z,8.42
2024-05-09T01:30:39.091Z,8.42
2024-05-09T01:33:08.874Z,8.43
2024-05-09T01:35:38.686Z,8.43
2024-05-09T01:38:07.869Z,8.40
2024-05-09T01:40:38.792Z,8.41
2024-05-09T01:43:09.751Z,8.40
2024-05-09T01:45:38.725Z,8.39
2024-05-09T01:48:06.690Z,8.39
2024-05-09T01:50:39.469Z,8.41
2024-05-09T01:53:10.705Z,8.41
2024-05-09T01:55:38.576Z,8.38
2024-05-09T01:58:06.112Z,8.36
2024-05-09T02:00:39.139Z,8.36
2024-05-09T02:03:13.364Z,8.36
2024-05-09T02:05:47.709Z,8.35
2024-05-09T02:08:17.492Z,8.37
2024-05-09T02:10:46.380Z,8.42
2024-05-09T02:13:14.200Z,8.46
2024-05-09T02:15:41.982Z,8.49
2024-05-09T02:18:10.163Z,8.51
2024-05-09T02:20:38.734Z,8.51
2024-05-09T02:23:06.968Z,8.51
2024-05-09T02:25:35.026Z,8.50
2024-05-09T02:28:02.581Z,8.48
2024-05-09T02:30:38.570Z,8.46
2024-05-09T02:33:10.600Z,8.44
2024-05-09T02:35:40.022Z,8.41
2024-05-09T02:38:08.814Z,8.37
2024-05-09T02:40:38.763Z,8.32
2024-05-09T02:43:08.173Z,8.31
2024-05-09T02:45:36.346Z,8.29
2024-05-09T02:48:04.260Z,8.32
2024-05-09T02:50:37.916Z,8.33
2024-05-09T02:53:08.601Z,8.35
2024-05-09T02:55:38.026Z,8.38
2024-05-09T02:58:08.783Z,8.43
2024-05-09T03:00:39.921Z,8.46
2024-05-09T03:03:12.524Z,8.48
2024-05-09T03:05:43.136Z,8.52
2024-05-09T03:08:11.146Z,8.56
2024-05-09T03:10:39.529Z,8.64
2024-05-09T03:13:08.172Z,8.81
2024-05-09T03:15:36.164Z,8.71
2024-05-09T03:18:04.974Z,8.71
2024-05-09T03:20:35.065Z,8.74
2024-05-09T03:23:05.220Z,8.77
2024-05-09T03:25:33.412Z,8.80
2024-05-09T03:28:01.098Z,8.80
2024-05-09T03:30:38.967Z,8.82
2024-05-09T03:33:15.632Z,8.85
2024-05-09T03:35:43.813Z,8.86
2024-05-09T03:38:11.345Z,8.90
2024-05-09T03:40:45.329Z,8.92
2024-05-09T03:43:13.473Z,8.96
2024-05-09T03:45:42.323Z,8.97
2024-05-09T03:48:10.224Z,8.99
2024-05-09T03:50:38.268Z,9.00
2024-05-09T03:53:06.847Z,9.03
2024-05-09T03:55:34.692Z,9.06
2024-05-09T03:58:02.333Z,9.08
2024-05-09T04:00:37.095Z,9.09
2024-05-09T04:03:09.062Z,9.11
2024-05-09T04:05:40.689Z,9.13
2024-05-09T04:08:09.915Z,9.16
2024-05-09T04:10:37.805Z,9.20
2024-05-09T04:13:05.540Z,9.23
2024-05-09T04:15:33.882Z,9.27
2024-05-09T04:18:02.400Z,9.30
2024-05-09T04:20:37.689Z,9.35
2024-05-09T04:23:11.379Z,9.42
2024-05-09T04:25:43.598Z,9.49
2024-05-09T04:28:11.691Z,9.56
2024-05-09T04:30:41.122Z,9.63
2024-05-09T04:33:14.240Z,9.68
2024-05-09T04:35:43.307Z,9.74
2024-05-09T04:38:12.365Z,9.82
2024-05-09T04:40:40.167Z,9.86
2024-05-09T04:43:14.283Z,9.90
2024-05-09T04:45:41.753Z,9.96
2024-05-09T04:48:09.884Z,10.00
2024-05-09T04:50:39.321Z,10.05
2024-05-09T04:53:09.887Z,10.08
2024-05-09T04:55:40.069Z,10.12
2024-05-09T04:58:11.660Z,10.19
2024-05-09T05:00:40.493Z,10.28
2024-05-09T05:03:12.885Z,10.34
2024-05-09T05:05:43.698Z,10.39
2024-05-09T05:08:15.310Z,10.43
2024-05-09T05:10:43.278Z,10.47
2024-05-09T05:13:22.715Z,10.51
2024-05-09T05:15:58.241Z,10.57
2024-05-09T05:18:27.410Z,10.63
2024-05-09T05:20:55.776Z,10.70
2024-05-09T05:23:23.664Z,10.78
2024-05-09T05:25:55.060Z,10.84
2024-05-09T05:28:22.957Z,10.94
2024-05-09T05:30:50.584Z,11.03
2024-05-09T05:33:19.484Z,11.09
2024-05-09T05:35:47.585Z,11.18
2024-05-09T05:38:15.262Z,11.27
2024-05-09T05:40:42.844Z,11.36
2024-05-09T05:43:17.208Z,11.46
2024-05-09T05:45:45.341Z,11.52
2024-05-09T05:48:14.138Z,11.55
2024-05-09T05:50:42.878Z,11.62
2024-05-09T05:53:10.816Z,11.68
2024-05-09T05:55:39.886Z,11.76
2024-05-09T05:58:11.058Z,11.79
2024-05-09T06:00:40.366Z,11.87
2024-05-09T06:03:09.630Z,11.93
2024-05-09T06:05:43.310Z,11.98
2024-05-09T06:08:11.311Z,12.02
2024-05-09T06:10:40.722Z,12.04
2024-05-09T06:13:12.363Z,12.07
2024-05-09T06:15:40.820Z,12.13
2024-05-09T06:18:09.567Z,12.10
2024-05-09T06:20:39.868Z,12.10
2024-05-09T06:23:08.801Z,12.14
2024-05-09T06:25:36.602Z,12.15
2024-05-09T06:28:05.111Z,12.21
2024-05-09T06:30:38.720Z,12.31
2024-05-09T06:33:10.782Z,12.39
2024-05-09T06:35:40.688Z,12.47
2024-05-09T06:38:09.012Z,12.54
2024-05-09T06:40:40.807Z,12.63
2024-05-09T06:43:13.498Z,12.69
2024-05-09T06:45:41.245Z,12.76
2024-05-09T06:48:09.424Z,12.78
2024-05-09T06:50:39.331Z,12.82
2024-05-09T06:53:08.285Z,12.85
2024-05-09T06:55:36.688Z,12.87
2024-05-09T06:58:05.497Z,12.89
2024-05-09T07:00:38.904Z,12.93
2024-05-09T07:03:10.116Z,12.99
2024-05-09T07:05:38.366Z,13.07
2024-05-09T07:08:06.417Z,13.11
2024-05-09T07:10:36.173Z,13.14
2024-05-09T07:13:11.690Z,13.19
2024-05-09T07:15:39.993Z,13.27
2024-05-09T07:18:11.754Z,13.28
2024-05-09T07:20:40.221Z,13.30
2024-05-09T07:23:13.910Z,13.30
2024-05-09T07:25:42.126Z,13.34
2024-05-09T07:28:20.765Z,13.38
2024-05-09T07:30:48.440Z,13.46
2024-05-09T07:33:21.217Z,13.51
2024-05-09T07:35:50.588Z,13.53
2024-05-09T07:38:18.214Z,13.58
2024-05-09T07:40:45.824Z,13.61
2024-05-09T07:43:14.663Z,13.68
2024-05-09T07:45:50.833Z,13.71
2024-05-09T07:52:37.288Z,13.84
2024-05-09T07:53:46.441Z,13.87
2024-05-09T07:56:18.350Z,13.88
2024-05-09T07:58:46.785Z,13.90
2024-05-09T08:01:14.393Z,13.95
2024-05-09T08:03:42.207Z,14.01
2024-05-09T08:06:09.983Z,14.07
2024-05-09T08:08:37.454Z,14.11
2024-05-09T08:11:06.450Z,14.14
2024-05-09T08:13:34.163Z,14.13
2024-05-09T08:16:01.712Z,14.11
2024-05-09T08:18:29.608Z,14.18
2024-05-09T08:20:57.850Z,14.27
2024-05-09T08:23:25.363Z,14.35
2024-05-09T08:25:53.036Z,14.42
2024-05-09T08:28:21.067Z,14.48
2024-05-09T08:30:48.714Z,14.53
2024-05-09T08:33:16.619Z,14.57
2024-05-09T08:35:44.458Z,14.56
2024-05-09T08:38:11.961Z,14.55
2024-05-09T08:40:39.600Z,14.62
2024-05-09T08:43:09.001Z,14.68
2024-05-09T08:45:38.856Z,14.75
2024-05-09T08:49:15.908Z,14.43
2024-05-09T08:51:43.844Z,14.75
2024-05-09T08:54:11.223Z,14.78
2024-05-09T08:56:39.649Z,14.74
2024-05-09T08:59:08.994Z,14.75
2024-05-09T09:01:37.973Z,14.83
2024-05-09T09:04:07.155Z,14.91
2024-05-09T09:06:34.789Z,14.91
2024-05-09T09:09:03.496Z,14.91
2024-05-09T09:11:31.024Z,14.94
2024-05-09T09:13:58.677Z,15.01
2024-05-09T09:16:35.836Z,15.09
2024-05-09T09:19:06.662Z,15.19
2024-05-09T09:21:35.053Z,15.27
2024-05-09T09:24:02.871Z,15.30
2024-05-09T09:26:30.813Z,15.29
2024-05-09T09:29:04.435Z,15.28
2024-05-09T09:31:32.138Z,15.27
2024-05-09T09:34:04.750Z,15.30
2024-05-09T09:36:32.691Z,15.29
2024-05-09T09:39:00.202Z,15.38
2024-05-09T09:41:27.993Z,15.46
2024-05-09T09:43:57.347Z,15.51
2024-05-09T09:46:24.788Z,15.53
2024-05-09T09:48:52.517Z,15.55
2024-05-09T09:51:20.387Z,15.65
2024-05-09T09:53:47.824Z,15.76
2024-05-09T09:56:15.411Z,15.83
2024-05-09T09:58:42.973Z,15.89
2024-05-09T10:01:10.527Z,15.86
2024-05-09T10:03:38.558Z,15.91
2024-05-09T10:06:06.947Z,15.99
2024-05-09T10:08:35.076Z,16.01
2024-05-09T10:11:04.072Z,16.13
2024-05-09T10:13:35.355Z,16.28
2024-05-09T10:16:10.365Z,16.30
2024-05-09T10:18:41.973Z,16.30
2024-05-09T10:21:19.382Z,16.34
2024-05-09T10:23:58.328Z,16.40
2024-05-09T10:26:35.755Z,16.48
2024-05-09T10:29:17.018Z,16.57
2024-05-09T10:31:46.040Z,16.70
2024-05-09T10:34:23.805Z,16.81
2024-05-09T10:36:52.750Z,16.85
2024-05-09T10:39:21.354Z,16.85
2024-05-09T10:41:49.585Z,16.88
2024-05-09T10:44:17.373Z,16.92
2024-05-09T10:46:46.149Z,16.92
2024-05-09T10:49:14.017Z,16.96
2024-05-09T10:51:41.799Z,17.02
2024-05-09T10:54:09.285Z,17.01
2024-05-09T10:56:36.916Z,17.04
2024-05-09T10:59:04.467Z,17.07
2024-05-09T11:01:32.132Z,17.11
2024-05-09T11:04:00.024Z,17.09
2024-05-09T11:06:27.763Z,17.13
2024-05-09T11:08:55.509Z,17.12
2024-05-09T11:11:23.139Z,17.11
2024-05-09T11:13:50.796Z,17.18
2024-05-09T11:16:20.625Z,17.21
2024-05-09T11:18:58.602Z,17.22
2024-05-09T11:21:26.971Z,17.25
2024-05-09T11:23:54.628Z,17.29
2024-05-09T11:26:22.750Z,17.38
2024-05-09T11:28:50.771Z,17.43
2024-05-09T11:31:18.957Z,17.42
2024-05-09T11:33:47.092Z,17.47
2024-05-09T11:36:14.820Z,17.53
2024-05-09T11:38:42.599Z,17.57
2024-05-09T11:41:18.030Z,17.57
2024-05-09T11:43:45.656Z,17.59
2024-05-09T11:46:13.622Z,17.62
2024-05-09T11:48:41.745Z,17.65
2024-05-09T11:51:09.428Z,17.68
2024-05-09T11:53:36.811Z,17.73
2024-05-09T11:56:04.839Z,17.79
2024-05-09T11:58:34.502Z,17.86
2024-05-09T12:01:02.247Z,17.86
2024-05-09T12:03:30.216Z,17.85
2024-05-09T12:05:58.051Z,17.83
2024-05-09T12:08:25.584Z,17.72
2024-05-09T12:10:53.850Z,17.75
2024-05-09T12:13:21.744Z,17.83
2024-05-09T12:15:49.476Z,17.95
2024-05-09T12:18:17.164Z,18.04
2024-05-09T12:20:44.960Z,18.13
2024-05-09T12:23:12.460Z,18.20
2024-05-09T12:25:40.367Z,18.29
2024-05-09T12:28:08.487Z,18.39
2024-05-09T12:30:40.030Z,18.42
2024-05-09T12:33:13.124Z,18.39
2024-05-09T12:35:44.086Z,18.35
2024-05-09T12:38:14.919Z,18.29
2024-05-09T12:40:42.867Z,18.33
2024-05-09T12:43:11.411Z,18.41
2024-05-09T12:45:40.392Z,18.50
2024-05-09T12:48:11.904Z,18.54
2024-05-09T12:50:40.568Z,18.53
2024-05-09T12:53:08.317Z,18.48
2024-05-09T12:55:44.479Z,18.42
2024-05-09T12:58:22.343Z,18.37
2024-05-09T13:00:51.698Z,18.32
2024-05-09T13:03:19.518Z,18.27
2024-05-09T13:05:47.375Z,18.36
2024-05-09T13:08:14.845Z,18.47
2024-05-09T13:10:42.617Z,18.58
2024-05-09T13:13:10.483Z,18.64
2024-05-09T13:15:38.238Z,18.67
2024-05-09T13:18:06.207Z,18.67
2024-05-09T13:20:36.091Z,18.63
2024-05-09T13:23:05.432Z,18.66
2024-05-09T13:25:36.524Z,18.74
2024-05-09T13:28:04.698Z,18.83
2024-05-09T13:30:39.013Z,18.75
2024-05-09T13:33:11.523Z,18.64
2024-05-09T13:35:45.566Z,18.54
2024-05-09T13:38:20.940Z,18.48
2024-05-09T13:40:49.365Z,18.53
2024-05-09T13:43:18.536Z,18.63
2024-05-09T13:45:46.827Z,18.77
2024-05-09T13:48:14.525Z,18.85
2024-05-09T13:50:42.097Z,18.93
2024-05-09T13:53:09.594Z,19.01
2024-05-09T13:55:38.130Z,19.02
2024-05-09T13:58:06.312Z,19.04
2024-05-09T14:00:44.126Z,19.02
2024-05-09T14:03:17.018Z,19.05
2024-05-09T14:05:46.606Z,19.13
2024-05-09T14:08:15.607Z,19.20
2024-05-09T14:10:46.716Z,19.30
2024-05-09T14:13:14.873Z,19.35
2024-05-09T14:15:42.462Z,19.41
2024-05-09T14:18:13.246Z,19.42
2024-05-09T14:20:42.695Z,19.42
2024-05-09T14:23:10.430Z,19.43
2024-05-09T14:25:42.107Z,19.45
2024-05-09T14:28:12.437Z,19.47
2024-05-09T14:30:41.512Z,19.48
2024-05-09T14:33:09.734Z,19.55
2024-05-09T14:35:38.653Z,19.57
2024-05-09T14:38:07.500Z,19.53
2024-05-09T14:40:41.363Z,19.49
2024-05-09T14:43:12.496Z,19.48
2024-05-09T14:45:40.769Z,19.42
2024-05-09T14:48:08.605Z,19.37
2024-05-09T14:50:39.211Z,19.31
2024-05-09T14:53:08.820Z,19.27
2024-05-09T14:55:37.578Z,19.24
2024-05-09T14:58:09.759Z,19.17
2024-05-09T15:00:41.493Z,19.15
2024-05-09T15:03:12.614Z,19.14
2024-05-09T15:05:40.453Z,19.15
2024-05-09T15:08:08.236Z,19.16
2024-05-09T15:10:37.183Z,19.12
2024-05-09T15:13:07.138Z,19.08
2024-05-09T15:15:36.822Z,19.10
2024-05-09T15:18:06.890Z,19.15
2024-05-09T15:20:36.936Z,19.13
2024-05-09T15:23:06.398Z,19.13
2024-05-09T15:25:34.989Z,19.15
2024-05-09T15:28:02.816Z,19.15
2024-05-09T15:30:33.159Z,19.12
2024-05-09T15:33:03.375Z,19.09
2024-05-09T15:35:31.314Z,19.07
2024-05-09T15:37:59.041Z,19.03
2024-05-09T15:40:35.632Z,18.96
2024-05-09T15:43:07.977Z,18.86
2024-05-09T15:45:36.088Z,18.85
2024-05-09T15:48:04.528Z,18.74
2024-05-09T15:50:38.210Z,18.54
2024-05-09T15:53:09.883Z,19.15
2024-05-09T15:55:38.509Z,18.73
2024-05-09T15:58:06.832Z,18.41
2024-05-09T16:00:39.371Z,18.40
2024-05-09T16:03:10.791Z,18.35
2024-05-09T16:05:39.269Z,18.25
2024-05-09T16:08:07.603Z,18.13
2024-05-09T16:10:36.466Z,18.03
2024-05-09T16:13:04.972Z,17.92
2024-05-09T16:15:32.616Z,17.77
2024-05-09T16:18:00.749Z,17.66
2024-05-09T16:20:37.976Z,17.55
2024-05-09T16:23:08.934Z,17.41
2024-05-09T16:25:37.187Z,17.31
2024-05-09T16:28:08.369Z,17.21
2024-05-09T16:30:39.407Z,17.09
2024-05-09T16:33:07.885Z,16.95
2024-05-09T16:35:36.886Z,16.83
2024-05-09T16:38:08.439Z,16.74
2024-05-09T16:40:39.815Z,16.64
2024-05-09T16:43:10.450Z,16.53
2024-05-09T16:45:39.366Z,16.44
2024-05-09T16:48:07.629Z,16.35
2024-05-09T16:50:36.611Z,16.25
2024-05-09T16:53:05.636Z,16.17
2024-05-09T16:55:34.735Z,16.07
2024-05-09T16:58:03.241Z,15.97
2024-05-09T17:00:39.362Z,15.83
2024-05-09T17:03:12.855Z,15.74
2024-05-09T17:05:41.751Z,15.70
2024-05-09T17:08:10.145Z,15.63
2024-05-09T17:10:39.046Z,15.54
2024-05-09T17:13:07.803Z,15.47
2024-05-09T17:15:37.339Z,15.41
2024-05-09T17:18:06.583Z,15.32
2024-05-09T17:20:36.778Z,15.22
2024-05-09T17:23:06.237Z,15.13
2024-05-09T17:25:34.666Z,15.03
2024-05-09T17:28:07.134Z,14.93
2024-05-09T17:30:38.026Z,14.82
2024-05-09T17:33:08.244Z,14.76
2024-05-09T17:35:36.888Z,14.69
2024-05-09T17:38:07.565Z,14.63
2024-05-09T17:40:37.261Z,14.55
2024-05-09T17:43:08.700Z,14.47
2024-05-09T17:45:39.690Z,14.38
2024-05-09T17:48:09.567Z,14.28
2024-05-09T17:50:38.112Z,14.20
2024-05-09T17:53:06.436Z,14.16
2024-05-09T17:55:35.104Z,14.10
2024-05-09T17:58:03.583Z,14.02
2024-05-09T18:00:37.951Z,13.96
2024-05-09T18:03:11.018Z,13.90
2024-05-09T18:05:39.542Z,13.84
2024-05-09T18:08:08.030Z,13.77
2024-05-09T18:10:38.765Z,13.68
2024-05-09T18:13:08.628Z,13.63
2024-05-09T18:15:37.187Z,13.53
2024-05-09T18:18:05.453Z,13.45
2024-05-09T18:20:41.442Z,13.34
2024-05-09T18:23:14.252Z,13.21
2024-05-09T18:25:42.977Z,13.09
2024-05-09T18:28:10.669Z,12.94
2024-05-09T18:30:38.751Z,12.81
2024-05-09T18:33:07.995Z,12.69
2024-05-09T18:35:36.505Z,12.55
2024-05-09T18:38:06.040Z,12.47
2024-05-09T18:40:36.686Z,12.37
2024-05-09T18:43:07.560Z,12.32
2024-05-09T18:45:38.028Z,12.25
2024-05-09T18:48:08.172Z,12.17
2024-05-09T18:50:39.449Z,12.08
2024-05-09T18:53:10.674Z,12.09
2024-05-09T18:55:39.374Z,12.05
2024-05-09T18:58:07.092Z,11.95
2024-05-09T19:00:37.949Z,11.85
2024-05-09T19:03:10.467Z,11.76
2024-05-09T19:05:41.475Z,11.66
2024-05-09T19:08:09.537Z,11.60
2024-05-09T19:10:37.496Z,11.57
2024-05-09T19:13:09.338Z,11.52
2024-05-09T19:15:40.751Z,11.44
2024-05-09T19:18:09.561Z,11.39
2024-05-09T19:20:37.784Z,11.35
2024-05-09T19:23:06.408Z,11.35
2024-05-09T19:25:34.876Z,11.33
2024-05-09T19:28:03.143Z,11.26
2024-05-09T19:30:38.560Z,11.18
2024-05-09T19:33:11.149Z,11.08
2024-05-09T19:35:39.859Z,11.04
2024-05-09T19:38:07.553Z,10.99
2024-05-09T19:40:35.793Z,10.90
2024-05-09T19:43:04.763Z,10.81
2024-05-09T19:45:34.598Z,10.76
2024-05-09T19:48:03.504Z,10.70
2024-05-09T19:50:39.322Z,10.68
2024-05-09T19:53:11.282Z,10.64
2024-05-09T19:55:39.742Z,10.60
2024-05-09T19:58:08.656Z,10.66
2024-05-09T20:00:39.454Z,10.52
2024-05-09T20:03:10.698Z,10.48
2024-05-09T20:05:39.259Z,10.43
2024-05-09T20:08:07.407Z,10.38
2024-05-09T20:10:36.262Z,10.33
2024-05-09T20:13:06.392Z,10.29
2024-05-09T20:15:35.572Z,10.27
2024-05-09T20:18:03.793Z,10.24
2024-05-09T20:20:38.021Z,10.21
2024-05-09T20:23:10.233Z,10.19
2024-05-09T20:25:38.043Z,10.15
2024-05-09T20:28:08.400Z,10.13
2024-05-09T20:30:36.663Z,10.10
2024-05-09T20:33:07.087Z,10.07
2024-05-09T20:35:36.196Z,10.08
2024-05-09T20:38:04.451Z,10.07
2024-05-09T20:40:36.265Z,10.06
2024-05-09T20:43:07.963Z,10.04
2024-05-09T20:45:36.106Z,10.08
2024-05-09T20:48:04.432Z,9.99
2024-05-09T20:50:37.972Z,9.93
2024-05-09T20:53:09.518Z,9.90
2024-05-09T20:55:37.312Z,9.88
2024-05-09T20:58:05.122Z,9.84
2024-05-09T21:00:40.135Z,9.81
2024-05-09T21:05:35.285Z,9.47
2024-05-09T21:08:03.255Z,9.67
2024-05-09T21:10:33.338Z,9.70
2024-05-09T21:13:02.778Z,9.79
2024-05-09T21:15:31.569Z,9.81
2024-05-09T21:17:59.550Z,9.81
2024-05-09T21:22:57.848Z,9.73
2024-05-09T21:25:25.855Z,9.70
2024-05-09T21:27:53.451Z,9.64
2024-05-09T21:30:31.646Z,9.61
2024-05-09T21:33:13.468Z,9.57
2024-05-09T21:35:43.449Z,9.56
2024-05-09T21:38:11.376Z,9.53
2024-05-09T21:40:39.161Z,9.47
2024-05-09T21:43:07.194Z,9.41
2024-05-09T21:45:35.353Z,9.35
2024-05-09T21:48:03.502Z,9.32
2024-05-09T21:50:37.187Z,9.28
2024-05-09T21:53:09.042Z,9.25
2024-05-09T21:55:36.530Z,9.20
2024-05-09T21:58:04.282Z,9.14
2024-05-09T22:00:36.624Z,9.09
2024-05-09T22:03:10.521Z,9.08
2024-05-09T22:05:41.625Z,9.05
2024-05-09T22:08:09.572Z,9.03
2024-05-09T22:10:37.567Z,8.97
2024-05-09T22:13:06.370Z,8.93
2024-05-09T22:15:35.458Z,8.89
2024-05-09T22:18:03.967Z,8.87
2024-05-09T22:20:37.095Z,8.85
2024-05-09T22:23:08.339Z,8.83
2024-05-09T22:25:38.322Z,8.83
2024-05-09T22:28:06.301Z,8.84
2024-05-09T22:30:37.929Z,8.82
2024-05-09T22:33:08.438Z,8.82
2024-05-09T22:35:37.056Z,8.81
2024-05-09T22:38:04.656Z,8.81
2024-05-09T22:40:41.697Z,8.81
2024-05-09T22:43:23.755Z,8.75
2024-05-09T22:45:54.577Z,8.67
2024-05-09T22:48:23.684Z,8.67
2024-05-09T22:50:51.860Z,8.67
2024-05-09T22:53:21.518Z,8.70
2024-05-09T22:55:48.899Z,8.70
2024-05-09T22:58:16.418Z,8.69
2024-05-09T23:00:44.041Z,8.67
2024-05-09T23:03:11.733Z,8.65
2024-05-09T23:05:39.458Z,8.65
2024-05-09T23:08:07.184Z,8.66
2024-05-09T23:10:37.605Z,8.66
2024-05-09T23:13:08.917Z,8.65
2024-05-09T23:15:38.468Z,8.64
2024-05-09T23:18:07.071Z,8.64
2024-05-09T23:20:38.559Z,8.64
2024-05-09T23:23:08.612Z,8.64
2024-05-09T23:25:36.614Z,8.63
2024-05-09T23:28:04.487Z,8.63
2024-05-09T23:30:37.927Z,8.60
2024-05-09T23:33:09.705Z,8.56
2024-05-09T23:35:38.212Z,8.55
2024-05-09T23:38:05.663Z,8.55
2024-05-09T23:40:39.315Z,8.55
2024-05-09T23:43:10.170Z,8.57
2024-05-09T23:45:38.101Z,8.57
2024-05-09T23:48:06.138Z,8.57
2024-05-09T23:50:37.006Z,8.56
2024-05-09T23:53:07.753Z,8.55
2024-05-09T23:55:36.695Z,8.52
2024-05-09T23:58:04.384Z,8.48
